createdAt,value
2022-08-12T00:00:09.906Z,82.20
2022-08-12T00:02:55.734Z,81.60
2022-08-12T00:05:44.491Z,79.50
2022-08-12T00:08:51.889Z,78.30
2022-08-12T00:11:38.029Z,76.90
2022-08-12T00:14:24.537Z,76.50
2022-08-12T00:17:10.631Z,75.80
2022-08-12T00:19:56.710Z,75.60
2022-08-12T00:22:42.810Z,76.10
2022-08-12T00:26:01.203Z,76.10
2022-08-12T00:28:36.012Z,75.60
2022-08-12T00:31:22.055Z,75.20
2022-08-12T00:34:07.381Z,75.70
2022-08-12T00:36:53.123Z,75.70
2022-08-12T00:39:39.315Z,75.70
2022-08-12T00:42:12.048Z,74.90
2022-08-12T00:44:43.301Z,74.60
2022-08-12T00:47:25.024Z,74.00
2022-08-12T00:49:56.104Z,74.00
2022-08-12T00:52:25.269Z,73.10
2022-08-12T00:54:57.010Z,72.50
2022-08-12T00:57:28.910Z,72.30
2022-08-12T00:59:59.141Z,72.70
2022-08-12T01:02:29.685Z,74.50
2022-08-12T01:05:18.575Z,75.00
2022-08-12T01:08:06.418Z,77.00
2022-08-12T01:10:51.605Z,78.30
2022-08-12T01:13:22.203Z,78.60
2022-08-12T01:15:52.380Z,79.20
2022-08-12T01:18:23.393Z,80.20
2022-08-12T01:21:05.114Z,80.40
2022-08-12T01:24:22.937Z,80.30
2022-08-12T01:26:58.467Z,80.60
2022-08-12T01:29:32.663Z,80.30
2022-08-12T01:32:06.505Z,80.10
2022-08-12T01:34:38.576Z,80.00
2022-08-12T01:37:09.251Z,80.00
2022-08-12T01:40:35.259Z,79.80
2022-08-12T01:42:35.063Z,79.70
2022-08-12T01:45:04.079Z,79.50
2022-08-12T01:47:49.893Z,79.40
2022-08-12T01:50:26.385Z,79.40
2022-08-12T01:53:05.561Z,79.80
2022-08-12T01:55:38.321Z,80.50
2022-08-12T01:58:24.210Z,81.10
2022-08-12T02:00:59.420Z,82.30
2022-08-12T02:04:04.889Z,83.20
2022-08-12T02:07:00.566Z,83.40
2022-08-12T02:10:05.649Z,83.30
2022-08-12T02:12:49.255Z,82.80
2022-08-12T02:15:29.140Z,82.50
2022-08-12T02:18:07.384Z,82.10
2022-08-12T02:20:52.484Z,81.70
2022-08-12T02:23:27.146Z,81.30
2022-08-12T02:26:00.719Z,81.30
2022-08-12T02:28:29.726Z,81.20
2022-08-12T02:31:05.061Z,81.10
2022-08-12T02:33:34.447Z,80.90
2022-08-12T02:36:04.288Z,80.90
2022-08-12T02:38:33.936Z,80.90
2022-08-12T02:41:05.619Z,81.10
2022-08-12T02:43:37.926Z,81.20
2022-08-12T02:46:14.136Z,81.50
2022-08-12T02:48:51.294Z,81.60
2022-08-12T02:51:21.420Z,81.70
2022-08-12T02:54:05.574Z,81.80
2022-08-12T02:56:37.877Z,81.20
2022-08-12T02:59:11.945Z,80.70
2022-08-12T03:01:47.999Z,80.20
2022-08-12T03:04:24.516Z,79.50
2022-08-12T03:07:05.818Z,78.90
2022-08-12T03:09:58.478Z,78.90
2022-08-12T03:12:34.170Z,77.30
2022-08-12T03:15:09.965Z,77.10
2022-08-12T03:18:25.486Z,76.70
2022-08-12T03:20:41.039Z,76.40
2022-08-12T03:23:19.438Z,76.10
2022-08-12T03:26:01.974Z,75.90
2022-08-12T03:28:49.437Z,75.90
2022-08-12T03:31:19.109Z,75.50
2022-08-12T03:34:02.241Z,75.30
2022-08-12T03:36:33.629Z,74.80
2022-08-12T03:39:17.734Z,74.50
2022-08-12T03:41:58.082Z,74.30
2022-08-12T03:44:50.710Z,74.20
2022-08-12T03:47:43.775Z,73.20
2022-08-12T03:50:31.932Z,73.10
2022-08-12T03:53:17.533Z,73.20
2022-08-12T03:56:03.259Z,73.00
2022-08-12T03:58:49.275Z,73.00
2022-08-12T04:01:18.382Z,73.20
2022-08-12T04:04:01.112Z,73.60
2022-08-12T04:06:34.942Z,74.20
2022-08-12T06:23:31.544Z,74.80
2022-08-12T08:05:34.205Z,78.50
2022-08-12T08:10:33.481Z,74.00
2022-08-12T08:13:05.266Z,71.40
2022-08-12T08:18:27.501Z,70.40
2022-08-12T08:20:57.470Z,69.80
2022-08-12T08:23:56.313Z,69.80
2022-08-12T08:26:27.129Z,70.00
2022-08-12T08:28:55.709Z,69.10
2022-08-12T08:31:25.383Z,68.60
2022-08-12T08:34:09.118Z,68.40
2022-08-12T08:36:45.458Z,68.30
2022-08-12T08:39:17.234Z,69.00
2022-08-12T08:42:17.837Z,68.90
2022-08-12T08:44:49.706Z,69.30
2022-08-12T08:47:27.852Z,69.60
2022-08-12T08:50:01.161Z,69.30
2022-08-12T08:52:40.314Z,69.90
2022-08-12T08:55:10.748Z,69.60
2022-08-12T08:57:44.067Z,69.20
2022-08-12T09:00:15.734Z,69.20
2022-08-12T09:02:49.273Z,68.80
2022-08-12T09:05:27.685Z,68.80
2022-08-12T09:14:11.530Z,68.40
2022-08-12T09:16:26.208Z,67.70
2022-08-12T09:18:56.274Z,67.60
2022-08-12T09:21:24.966Z,67.00
2022-08-12T09:24:07.466Z,65.80
2022-08-12T09:26:38.174Z,64.70
2022-08-12T09:29:15.605Z,63.60
2022-08-12T09:32:03.568Z,63.90
2022-08-12T09:34:41.722Z,64.50
2022-08-12T09:37:19.987Z,65.50
2022-08-12T09:40:03.621Z,65.40
2022-08-12T09:43:15.159Z,65.10
2022-08-12T09:46:06.124Z,64.20
2022-08-12T09:48:39.289Z,64.80
2022-08-12T09:51:16.611Z,65.20
2022-08-12T09:54:05.576Z,65.30
2022-08-12T09:57:02.725Z,64.80
2022-08-12T10:00:16.041Z,66.10
2022-08-12T10:02:42.800Z,65.50
2022-08-12T10:05:05.184Z,66.10
2022-08-12T10:07:40.330Z,66.80
2022-08-12T10:10:23.764Z,67.30
2022-08-12T10:13:20.582Z,67.70
2022-08-12T10:16:05.318Z,68.00
2022-08-12T10:18:52.316Z,68.10
2022-08-12T10:21:23.644Z,68.20
2022-08-12T10:23:57.032Z,68.60
2022-08-12T10:26:44.812Z,68.80
2022-08-12T10:30:37.105Z,68.80
2022-08-12T10:32:44.243Z,68.80
2022-08-12T10:35:14.570Z,68.90
2022-08-12T10:38:36.336Z,68.80
2022-08-12T10:40:55.886Z,69.00
2022-08-12T10:43:55.133Z,69.20
2022-08-12T10:46:30.973Z,69.40
2022-08-12T10:49:06.617Z,69.60
2022-08-12T10:52:03.526Z,69.40
2022-08-12T10:54:34.405Z,69.20
2022-08-12T10:57:09.565Z,68.90
2022-08-12T11:00:31.778Z,68.20
2022-08-12T11:04:27.906Z,67.90
2022-08-12T11:07:06.996Z,67.10
2022-08-12T11:08:38.967Z,67.50
2022-08-12T11:11:02.215Z,66.50
2022-08-12T11:13:46.928Z,66.00
2022-08-12T11:16:19.645Z,66.50
2022-08-12T11:18:55.028Z,66.40
2022-08-12T11:21:56.526Z,65.90
2022-08-12T11:24:30.028Z,64.90
2022-08-12T11:27:01.801Z,65.00
2022-08-12T11:30:00.510Z,63.80
2022-08-12T11:32:26.739Z,62.50
2022-08-12T11:34:55.381Z,63.10
2022-08-12T11:37:27.715Z,63.80
2022-08-12T11:42:35.910Z,63.40
2022-08-12T11:45:10.766Z,63.50
2022-08-12T11:47:40.200Z,64.00
2022-08-12T11:50:11.817Z,65.00
2022-08-12T11:52:55.382Z,64.30
2022-08-12T11:55:25.386Z,64.10
2022-08-12T11:58:17.281Z,65.50
2022-08-12T12:03:43.692Z,64.40
2022-08-12T12:06:16.910Z,63.40
2022-08-12T12:08:51.513Z,63.00
2022-08-12T12:11:21.919Z,63.10
2022-08-12T12:14:08.617Z,63.00
2022-08-12T12:16:42.057Z,63.50
2022-08-12T12:19:17.799Z,63.60
2022-08-12T12:21:49.582Z,62.60
2022-08-12T12:24:21.585Z,60.80
2022-08-12T12:27:00.967Z,60.10
2022-08-12T12:30:19.076Z,59.90
2022-08-12T12:32:22.916Z,59.90
2022-08-12T12:35:13.520Z,60.10
2022-08-12T12:38:05.062Z,60.30
2022-08-12T12:40:43.783Z,60.50
2022-08-12T12:43:13.814Z,60.10
2022-08-12T12:45:44.141Z,60.50
2022-08-12T12:48:16.116Z,60.80
2022-08-12T12:50:51.236Z,61.60
2022-08-12T12:54:05.213Z,62.40
2022-08-12T12:56:16.909Z,63.00
2022-08-12T12:58:45.203Z,63.10
2022-08-12T13:01:26.686Z,63.20
2022-08-12T13:04:02.181Z,64.70
2022-08-12T13:06:32.028Z,64.70
2022-08-12T13:09:03.534Z,64.00
2022-08-12T13:11:41.298Z,63.90
2022-08-12T13:14:28.048Z,64.00
2022-08-12T13:16:58.394Z,64.40
2022-08-12T13:19:37.865Z,64.70
2022-08-12T13:22:18.472Z,65.00
2022-08-12T13:24:51.837Z,65.30
2022-08-12T13:27:21.354Z,65.50
2022-08-12T13:29:49.943Z,65.70
2022-08-12T13:32:30.639Z,66.80
2022-08-12T13:35:04.325Z,66.90
2022-08-12T13:37:54.999Z,67.20
2022-08-12T13:40:24.825Z,68.40
2022-08-12T13:42:57.875Z,69.10
2022-08-12T13:45:27.047Z,68.80
2022-08-12T13:47:58.635Z,68.90
2022-08-12T13:50:32.573Z,69.20
2022-08-12T13:53:06.197Z,69.40
2022-08-12T13:56:01.996Z,69.40
2022-08-12T13:58:34.805Z,69.50
2022-08-12T14:01:06.566Z,69.10
2022-08-12T14:03:50.718Z,65.00
2022-08-12T14:06:30.265Z,62.00
2022-08-12T14:08:59.982Z,60.10
2022-08-12T14:11:48.289Z,59.40
2022-08-12T14:14:27.910Z,59.30
2022-08-12T14:17:02.216Z,59.80
2022-08-12T14:19:35.953Z,60.00
2022-08-12T14:22:10.538Z,60.20
2022-08-12T14:24:40.333Z,61.70
2022-08-12T14:27:11.292Z,62.90
2022-08-12T14:30:04.483Z,63.40
2022-08-12T14:32:36.050Z,63.30
2022-08-12T14:35:06.582Z,62.80
2022-08-12T14:37:58.008Z,62.70
2022-08-12T14:40:29.738Z,62.20
2022-08-12T14:42:59.367Z,62.40
2022-08-12T14:45:44.389Z,62.70
2022-08-12T14:48:18.583Z,62.90
2022-08-12T14:51:02.936Z,62.80
2022-08-12T14:59:56.814Z,62.30
2022-08-12T15:02:21.608Z,61.80
2022-08-12T15:04:59.866Z,63.10
2022-08-12T15:07:48.761Z,63.50
2022-08-12T15:10:31.353Z,63.70
2022-08-12T15:13:00.533Z,64.30
2022-08-12T15:15:33.782Z,63.70
2022-08-12T15:18:03.921Z,63.80
2022-08-12T15:20:38.039Z,64.10
2022-08-12T15:23:17.937Z,63.70
2022-08-12T15:26:03.060Z,63.80
2022-08-12T15:28:34.165Z,64.30
2022-08-12T15:31:09.514Z,64.50
2022-08-12T15:33:52.767Z,65.00
2022-08-12T15:36:53.676Z,65.00
2022-08-12T15:39:17.256Z,65.00
2022-08-12T15:41:49.204Z,65.50
2022-08-12T15:44:38.968Z,65.90
2022-08-12T15:47:08.290Z,65.10
2022-08-12T15:49:42.982Z,64.40
2022-08-12T15:52:27.090Z,64.70
2022-08-12T15:54:58.486Z,64.40
2022-08-12T15:57:33.547Z,64.10
2022-08-12T16:00:07.308Z,63.10
2022-08-12T16:02:47.314Z,63.10
2022-08-12T16:06:12.757Z,62.80
2022-08-12T16:08:15.303Z,62.10
2022-08-12T16:10:47.169Z,62.40
2022-08-12T16:13:25.240Z,62.20
2022-08-12T16:16:04.025Z,62.90
2022-08-12T16:18:40.873Z,63.50
2022-08-12T16:21:50.490Z,63.80
2022-08-12T16:24:04.795Z,64.00
2022-08-12T16:26:36.733Z,64.50
2022-08-12T16:29:15.115Z,65.00
2022-08-12T16:31:44.612Z,65.20
2022-08-12T16:34:41.992Z,65.70
2022-08-12T16:37:07.327Z,66.30
2022-08-12T16:39:59.811Z,67.20
2022-08-12T16:42:27.728Z,68.50
2022-08-12T16:44:59.851Z,69.00
2022-08-12T16:47:57.822Z,69.30
2022-08-12T16:55:18.580Z,69.90
2022-08-12T16:57:49.488Z,70.10
2022-08-12T17:00:24.944Z,70.70
2022-08-12T17:02:58.121Z,70.90
2022-08-12T17:05:31.074Z,70.80
2022-08-12T17:08:01.575Z,71.00
2022-08-12T17:10:36.236Z,71.00
2022-08-12T20:25:01.668Z,70.60
2022-08-12T20:28:05.344Z,74.00
2022-08-12T20:30:52.785Z,73.80
2022-08-12T20:33:17.827Z,73.80
2022-08-12T20:36:14.153Z,74.00
2022-08-12T20:38:42.217Z,74.20
2022-08-12T20:41:17.599Z,74.30
2022-08-12T20:43:51.804Z,74.60
2022-08-12T20:46:21.246Z,74.60
2022-08-12T20:48:54.892Z,75.00
2022-08-12T23:36:31.604Z,75.40
